Time;durP1;ratioP1;P1;durP2;ratioP2;P2;SDS_P1;SDS_P2;PMS_P1;PMS_P2;Temp;Humidity;BMP_temperature;BMP_pressure;BME280_temperature;BME280_humidity;BME280_pressure;Samples;Min_cycle;Max_cycle;Signal;HPM_P1;HPM_P2
2021/07/10 00:01:54;;;;;;;48.38;34.42;;;16.40;99.90;;;;;;5053721;28;20037;-67
2021/07/10 00:04:21;;;;;;;48.28;33.83;;;16.40;99.90;;;;;;5053340;28;20065;-67
2021/07/10 00:06:47;;;;;;;45.58;33.97;;;16.40;99.90;;;;;;5053710;28;20021;-67
2021/07/10 00:09:13;;;;;;;51.35;34.60;;;16.40;99.90;;;;;;5053403;28;20025;-67
2021/07/10 00:11:38;;;;;;;53.17;36.72;;;16.40;99.90;;;;;;5035522;28;20029;-67
2021/07/10 00:14:04;;;;;;;58.72;37.88;;;16.30;99.90;;;;;;5035578;28;20033;-67
2021/07/10 00:16:29;;;;;;;56.40;38.85;;;16.20;99.90;;;;;;5019037;28;20363;-67
2021/07/10 00:18:55;;;;;;;49.80;36.67;;;16.10;99.90;;;;;;5035816;28;20104;-67
2021/07/10 00:21:20;;;;;;;55.15;38.58;;;16.10;99.90;;;;;;5035531;28;20056;-67
2021/07/10 00:23:46;;;;;;;58.80;39.85;;;16.00;99.90;;;;;;5035115;28;20021;-67
2021/07/10 00:26:12;;;;;;;56.40;39.90;;;16.00;99.90;;;;;;5053256;28;20359;-67
2021/07/10 00:28:37;;;;;;;57.67;40.00;;;16.00;99.90;;;;;;5053494;28;20021;-68
2021/07/10 00:31:03;;;;;;;58.97;41.08;;;15.90;99.90;;;;;;5035769;28;20097;-67
2021/07/10 00:33:29;;;;;;;65.68;42.83;;;15.80;99.90;;;;;;5035400;28;20458;-67
2021/07/10 00:35:54;;;;;;;63.05;42.88;;;15.80;99.90;;;;;;5053428;28;20029;-67
2021/07/10 00:38:20;;;;;;;62.55;41.75;;;15.70;99.90;;;;;;5035636;28;20021;-67
2021/07/10 00:40:45;;;;;;;61.53;40.88;;;15.70;99.90;;;;;;5052839;28;20104;-67
2021/07/10 00:43:11;;;;;;;61.28;42.03;;;15.60;99.90;;;;;;5052757;28;20410;-67
2021/07/10 00:45:36;;;;;;;64.45;43.35;;;15.60;99.90;;;;;;5034951;28;20111;-67
2021/07/10 00:48:02;;;;;;;60.97;42.45;;;15.60;99.90;;;;;;5035584;28;20033;-67
2021/07/10 00:50:28;;;;;;;56.70;40.03;;;15.60;99.90;;;;;;5035087;28;20091;-67
2021/07/10 00:52:54;;;;;;;58.08;39.83;;;15.60;99.90;;;;;;5039230;28;20397;-67
2021/07/10 00:55:20;;;;;;;58.63;39.25;;;15.50;99.90;;;;;;5056838;28;20355;-67
2021/07/10 00:57:47;;;;;;;62.05;41.58;;;15.50;99.90;;;;;;5038356;28;20397;-67
2021/07/10 01:00:16;;;;;;;56.42;39.03;;;15.40;99.90;;;;;;5038385;28;20025;-67
2021/07/10 01:02:42;;;;;;;60.40;41.03;;;15.40;99.90;;;;;;5056430;28;20035;-67
2021/07/10 01:05:11;;;;;;;56.13;40.08;;;15.30;99.90;;;;;;5022229;28;20052;-67
2021/07/10 01:07:36;;;;;;;57.65;39.67;;;15.30;99.90;;;;;;5056597;28;20028;-67
2021/07/10 01:10:03;;;;;;;60.35;40.70;;;15.30;99.90;;;;;;5056594;28;20017;-67
2021/07/10 01:12:31;;;;;;;59.80;41.63;;;15.20;99.90;;;;;;5038067;28;20021;-67
2021/07/10 01:14:57;;;;;;;64.10;41.92;;;15.20;99.90;;;;;;5038667;28;20029;-67
2021/07/10 01:17:22;;;;;;;61.83;42.50;;;15.20;99.90;;;;;;5056156;28;20040;-67
2021/07/10 01:20:08;;;;;;;66.22;44.15;;;15.10;99.90;;;;;;5038656;28;20033;-67
2021/07/10 01:22:34;;;;;;;68.53;44.83;;;15.00;99.90;;;;;;5038534;28;20025;-67
2021/07/10 01:25:00;;;;;;;67.72;46.08;;;15.00;99.90;;;;;;5056217;28;20439;-67
2021/07/10 01:27:26;;;;;;;69.03;46.13;;;15.00;99.90;;;;;;5056257;28;20056;-67
2021/07/10 01:29:53;;;;;;;72.72;45.63;;;15.00;99.90;;;;;;5056253;28;20489;-67
2021/07/10 01:32:20;;;;;;;66.53;46.40;;;14.90;99.90;;;;;;5037675;28;20028;-67
2021/07/10 01:34:47;;;;;;;69.78;46.95;;;14.80;99.90;;;;;;5056129;28;20100;-67
2021/07/10 01:37:14;;;;;;;78.10;49.67;;;14.80;99.90;;;;;;5055801;28;20027;-67
2021/07/10 01:39:40;;;;;;;75.68;48.50;;;14.80;99.90;;;;;;5056025;28;20021;-67
2021/07/10 01:42:06;;;;;;;70.70;45.28;;;14.70;99.90;;;;;;5038177;28;20029;-67
2021/07/10 01:44:31;;;;;;;68.80;46.00;;;14.70;99.90;;;;;;5068572;28;20044;-67
2021/07/10 01:46:57;;;;;;;69.15;46.88;;;14.70;99.90;;;;;;5075344;28;20020;-67
2021/07/10 01:49:22;;;;;;;72.45;47.45;;;14.70;99.90;;;;;;5074705;28;20036;-67
2021/07/10 01:51:48;;;;;;;64.15;44.67;;;14.60;99.90;;;;;;5075818;28;20070;-67
2021/07/10 01:54:13;;;;;;;70.20;46.75;;;14.70;99.90;;;;;;5075503;28;20055;-67
2021/07/10 01:56:39;;;;;;;68.90;47.47;;;14.60;99.90;;;;;;5074255;28;20095;-67
2021/07/10 01:59:04;;;;;;;75.47;47.75;;;14.60;99.90;;;;;;5074685;28;20097;-67
2021/07/10 02:01:32;;;;;;;70.32;46.88;;;14.60;99.90;;;;;;5075043;28;20033;-67
2021/07/10 02:03:58;;;;;;;67.80;47.33;;;14.70;99.90;;;;;;5073837;28;20099;-67
2021/07/10 02:06:24;;;;;;;78.88;49.80;;;14.60;99.90;;;;;;5075524;28;20062;-67
2021/07/10 02:08:50;;;;;;;85.78;52.92;;;14.60;99.90;;;;;;5075468;28;20024;-67
2021/07/10 02:11:15;;;;;;;84.38;53.65;;;14.60;99.90;;;;;;5075174;28;20431;-67
2021/07/10 02:13:42;;;;;;;87.35;53.90;;;14.60;99.90;;;;;;5073621;28;20028;-67
2021/07/10 02:16:09;;;;;;;93.45;55.20;;;14.60;99.90;;;;;;5074382;28;20027;-67
2021/07/10 02:18:35;;;;;;;89.00;54.05;;;14.70;99.90;;;;;;5075362;28;20424;-67
2021/07/10 02:21:01;;;;;;;83.90;52.70;;;14.70;99.90;;;;;;5057221;28;20029;-67
2021/07/10 02:23:26;;;;;;;83.57;51.30;;;14.60;99.90;;;;;;5074175;28;20031;-67
2021/07/10 02:25:52;;;;;;;78.25;51.47;;;14.60;99.90;;;;;;5075151;28;20021;-67
2021/07/10 02:28:17;;;;;;;77.72;51.38;;;14.50;99.90;;;;;;5075122;28;20100;-67
2021/07/10 02:30:43;;;;;;;76.45;50.17;;;14.50;99.90;;;;;;5075048;28;20082;-67
2021/07/10 02:33:09;;;;;;;77.55;51.13;;;14.50;99.90;;;;;;5074718;28;20099;-67
2021/07/10 02:35:35;;;;;;;81.88;51.63;;;14.50;99.90;;;;;;5056493;28;20055;-67
2021/07/10 02:38:02;;;;;;;79.22;51.45;;;14.40;99.90;;;;;;5074952;28;20458;-67
2021/07/10 02:40:27;;;;;;;79.00;52.35;;;14.40;99.90;;;;;;5074890;28;20024;-67
2021/07/10 02:42:54;;;;;;;86.45;54.00;;;14.40;99.90;;;;;;5072912;28;20036;-67
2021/07/10 02:45:20;;;;;;;86.50;55.75;;;14.40;99.90;;;;;;5054719;28;20066;-67
2021/07/10 02:47:46;;;;;;;92.40;55.15;;;14.40;99.90;;;;;;5037079;28;20021;-67
2021/07/10 02:50:16;;;;;;;85.15;53.15;;;14.40;99.90;;;;;;5037090;28;20021;-67
2021/07/10 02:52:42;;;;;;;89.55;55.53;;;14.40;99.90;;;;;;5054632;28;20032;-67
2021/07/10 02:55:09;;;;;;;82.63;52.90;;;14.40;99.90;;;;;;5054309;28;20111;-67
2021/07/10 02:57:35;;;;;;;77.20;49.63;;;14.40;99.90;;;;;;5054301;28;20076;-67
2021/07/10 03:00:00;;;;;;;76.28;48.72;;;14.30;99.90;;;;;;5054488;28;20488;-67
2021/07/10 03:02:26;;;;;;;87.63;56.33;;;14.20;99.90;;;;;;5036773;28;20040;-67
2021/07/10 03:04:52;;;;;;;91.47;53.92;;;14.20;99.90;;;;;;5036337;28;20082;-67
2021/07/10 03:07:18;;;;;;;84.88;54.28;;;14.20;99.90;;;;;;5053850;28;20493;-67
2021/07/10 03:09:43;;;;;;;88.63;52.72;;;14.10;99.90;;;;;;5054372;28;20025;-67
2021/07/10 03:12:09;;;;;;;75.05;49.97;;;14.10;99.90;;;;;;5054305;28;20028;-67
2021/07/10 03:14:34;;;;;;;80.38;52.47;;;14.10;99.90;;;;;;5036202;28;20025;-67
2021/07/10 03:17:00;;;;;;;77.53;50.72;;;14.10;99.90;;;;;;5054243;28;20074;-67
2021/07/10 03:19:25;;;;;;;83.50;51.00;;;14.10;99.90;;;;;;5036527;28;20036;-67
2021/07/10 03:21:51;;;;;;;79.97;50.55;;;14.00;99.90;;;;;;5054179;28;20467;-67
2021/07/10 03:24:16;;;;;;;84.40;52.63;;;14.00;99.90;;;;;;5036030;28;20489;-67
2021/07/10 03:26:42;;;;;;;89.03;55.45;;;14.00;99.90;;;;;;5054053;28;20522;-67
2021/07/10 03:29:08;;;;;;;94.30;57.10;;;14.00;99.90;;;;;;5054039;28;20112;-67
2021/07/10 03:31:33;;;;;;;88.50;56.10;;;14.00;99.90;;;;;;5019162;28;20025;-67
2021/07/10 03:34:00;;;;;;;88.90;54.67;;;14.00;99.90;;;;;;5035982;28;20052;-67
2021/07/10 03:36:27;;;;;;;90.72;54.97;;;13.90;99.90;;;;;;5053436;28;20229;-67
2021/07/10 03:38:53;;;;;;;83.32;53.78;;;14.00;99.90;;;;;;5053686;28;20113;-67
2021/07/10 03:41:19;;;;;;;84.03;53.78;;;14.00;99.90;;;;;;5053915;28;20037;-67
2021/07/10 03:43:45;;;;;;;80.30;50.67;;;14.00;99.90;;;;;;5049587;28;20570;-67
2021/07/10 03:46:10;;;;;;;76.25;50.20;;;14.00;99.90;;;;;;5073335;28;20021;-67
2021/07/10 03:48:37;;;;;;;81.20;52.60;;;14.00;99.90;;;;;;5072088;28;20025;-67
2021/07/10 03:51:03;;;;;;;80.82;51.70;;;14.00;99.90;;;;;;5072480;28;20462;-67
2021/07/10 03:53:29;;;;;;;89.30;52.63;;;14.10;99.90;;;;;;5072687;28;20462;-67
2021/07/10 03:55:54;;;;;;;82.07;51.90;;;14.10;99.90;;;;;;5055334;28;20060;-67
2021/07/10 03:58:20;;;;;;;83.47;51.92;;;14.10;99.90;;;;;;5073795;28;20036;-67
2021/07/10 04:00:45;;;;;;;78.32;51.53;;;14.20;99.90;;;;;;5072639;28;20489;-67
2021/07/10 04:03:11;;;;;;;81.53;52.67;;;14.30;99.90;;;;;;5073689;28;20029;-67
2021/07/10 04:05:36;;;;;;;78.65;52.63;;;14.30;99.90;;;;;;5073744;28;20032;-67
2021/07/10 04:08:02;;;;;;;79.63;50.67;;;14.40;99.90;;;;;;5055262;28;20579;-67
2021/07/10 04:10:28;;;;;;;71.97;48.90;;;14.50;99.90;;;;;;5072276;28;20032;-67
2021/07/10 04:12:54;;;;;;;69.07;49.15;;;14.60;99.90;;;;;;5072517;28;20074;-67
2021/07/10 04:15:19;;;;;;;76.15;50.90;;;14.70;99.90;;;;;;5073387;28;20070;-67
2021/07/10 04:17:46;;;;;;;73.15;49.67;;;14.70;99.90;;;;;;5073633;28;20071;-68
2021/07/10 04:20:13;;;;;;;72.78;49.38;;;14.80;99.90;;;;;;5072689;28;20420;-67
2021/07/10 04:22:40;;;;;;;70.80;48.15;;;14.90;99.90;;;;;;5073570;28;20029;-67
2021/07/10 04:25:08;;;;;;;64.18;43.78;;;15.00;99.90;;;;;;5071730;28;20107;-67
2021/07/10 04:27:34;;;;;;;66.10;44.50;;;15.10;99.90;;;;;;5077113;28;20433;-67
2021/07/10 04:30:00;;;;;;;65.95;43.28;;;15.20;99.90;;;;;;5077363;28;20020;-67
2021/07/10 04:32:26;;;;;;;56.67;39.65;;;15.30;99.90;;;;;;5077331;28;20099;-67
2021/07/10 04:34:52;;;;;;;53.80;39.08;;;15.50;99.90;;;;;;5076721;28;20422;-67
2021/07/10 04:37:17;;;;;;;46.63;34.80;;;15.70;99.90;;;;;;5076940;28;20036;-67
2021/07/10 04:39:43;;;;;;;47.00;35.70;;;15.90;99.90;;;;;;5077175;28;20056;-67
2021/07/10 04:42:08;;;;;;;46.92;33.97;;;16.00;99.90;;;;;;5077096;28;20389;-67
2021/07/10 04:44:34;;;;;;;42.45;32.10;;;16.30;99.90;;;;;;5058516;28;20402;-68
2021/07/10 04:47:00;;;;;;;34.70;28.58;;;16.90;99.90;;;;;;5077032;28;20446;-68
2021/07/10 04:49:26;;;;;;;38.75;26.73;;;17.40;99.90;;;;;;5075548;28;20031;-68
2021/07/10 04:51:51;;;;;;;33.08;27.75;;;17.90;99.90;;;;;;5076935;28;20016;-68
2021/07/10 04:54:17;;;;;;;33.83;25.92;;;18.20;99.90;;;;;;5076903;28;20021;-68
2021/07/10 04:56:42;;;;;;;34.97;24.67;;;18.60;99.90;;;;;;5076879;28;20335;-68
2021/07/10 04:59:08;;;;;;;31.67;24.15;;;18.90;99.90;;;;;;5076809;28;20099;-68
2021/07/10 05:01:33;;;;;;;29.90;24.00;;;19.20;99.90;;;;;;5076787;28;20036;-68
2021/07/10 05:03:59;;;;;;;30.92;22.88;;;19.60;99.90;;;;;;5076123;28;20020;-69
2021/07/10 05:06:25;;;;;;;27.33;21.80;;;19.80;99.90;;;;;;5076704;28;20055;-69
2021/07/10 05:08:51;;;;;;;25.98;21.63;;;20.10;99.90;;;;;;5076669;28;20454;-69
2021/07/10 05:11:17;;;;;;;29.00;20.77;;;20.20;99.90;;;;;;5075464;28;20079;-69
2021/07/10 05:13:43;;;;;;;26.50;20.90;;;20.40;99.90;;;;;;5058172;28;20086;-69
2021/07/10 05:16:08;;;;;;;23.85;20.50;;;20.70;99.90;;;;;;5075415;28;20028;-69
2021/07/10 05:18:34;;;;;;;25.38;19.55;;;21.00;99.90;;;;;;5058406;28;20020;-69
2021/07/10 05:20:59;;;;;;;22.52;17.80;;;20.90;99.90;;;;;;5076434;28;20020;-68
2021/07/10 05:23:36;;;;;;;19.60;17.50;;;21.20;99.90;;;;;;5074891;28;20032;-69
2021/07/10 05:26:02;;;;;;;25.48;17.95;;;21.40;99.90;;;;;;5076371;28;20017;-69
2021/07/10 05:28:28;;;;;;;23.95;17.52;;;21.60;99.90;;;;;;5075023;28;20031;-69
2021/07/10 05:30:53;;;;;;;21.75;18.23;;;21.40;99.90;;;;;;5075967;28;20021;-68
2021/07/10 05:33:19;;;;;;;20.58;16.85;;;21.60;99.90;;;;;;5074449;28;20017;-69
2021/07/10 05:35:46;;;;;;;19.95;17.80;;;21.90;99.90;;;;;;5074472;28;20116;-69
2021/07/10 05:38:12;;;;;;;24.95;18.27;;;22.40;99.90;;;;;;5074429;28;20028;-69
2021/07/10 05:40:38;;;;;;;22.45;17.75;;;22.70;99.90;;;;;;5076113;28;20458;-69
2021/07/10 05:43:04;;;;;;;21.70;16.90;;;23.20;99.90;;;;;;5071356;28;20134;-69
2021/07/10 05:45:29;;;;;;;18.48;16.52;;;23.60;99.90;;;;;;5021584;28;20174;-69
2021/07/10 05:47:55;;;;;;;19.67;16.27;;;23.70;99.90;;;;;;5055707;28;20083;-70
2021/07/10 05:50:21;;;;;;;17.65;15.80;;;23.70;99.90;;;;;;5004717;28;20028;-69
2021/07/10 05:52:46;;;;;;;17.40;15.63;;;23.10;99.90;;;;;;5037464;28;20441;-69
2021/07/10 05:55:12;;;;;;;22.45;17.58;;;23.40;99.90;;;;;;5055456;28;20095;-70
2021/07/10 05:57:37;;;;;;;20.10;17.10;;;23.90;99.90;;;;;;5055740;28;20422;-69
2021/07/10 06:00:06;;;;;;;18.58;16.67;;;24.00;99.90;;;;;;5055699;28;20033;-69
2021/07/10 06:02:32;;;;;;;20.38;18.08;;;24.20;99.90;;;;;;5055117;28;20029;-70
2021/07/10 06:04:57;;;;;;;21.00;18.33;;;24.50;99.90;;;;;;5021291;28;20036;-70
2021/07/10 06:07:23;;;;;;;20.05;18.02;;;24.90;99.90;;;;;;5037147;28;20047;-70
2021/07/10 06:09:48;;;;;;;21.20;18.10;;;25.10;99.90;;;;;;5055227;28;20529;-68
2021/07/10 06:12:14;;;;;;;22.10;17.77;;;25.30;99.90;;;;;;5054870;28;20033;-70
2021/07/10 06:14:39;;;;;;;20.90;18.00;;;25.60;99.90;;;;;;5037350;28;20029;-69
2021/07/10 06:17:05;;;;;;;22.50;19.33;;;25.00;99.90;;;;;;5054800;28;20061;-70
2021/07/10 06:19:31;;;;;;;22.50;19.67;;;24.80;99.90;;;;;;5055340;28;20100;-69
2021/07/10 06:21:58;;;;;;;23.45;20.23;;;24.30;99.90;;;;;;5055011;28;20036;-70
2021/07/10 06:24:25;;;;;;;22.92;20.10;;;23.80;99.90;;;;;;5054663;28;20048;-69
2021/07/10 06:26:50;;;;;;;23.27;20.67;;;23.70;99.90;;;;;;5037371;28;20114;-69
2021/07/10 06:29:16;;;;;;;24.95;22.25;;;24.30;99.90;;;;;;5054864;28;20087;-69
2021/07/10 06:31:41;;;;;;;29.13;23.20;;;24.40;99.90;;;;;;5054777;28;20025;-69
2021/07/10 06:34:09;;;;;;;26.70;21.45;;;24.20;99.90;;;;;;5054747;28;20040;-69
2021/07/10 06:36:36;;;;;;;25.08;21.70;;;24.40;99.90;;;;;;5054770;28;20025;-69
2021/07/10 06:39:03;;;;;;;25.95;21.80;;;24.60;99.90;;;;;;5020670;28;20040;-70
2021/07/10 06:41:29;;;;;;;25.73;22.90;;;25.20;99.90;;;;;;5037118;28;20100;-70
2021/07/10 06:43:55;;;;;;;28.25;22.92;;;25.40;99.90;;;;;;5054211;28;20078;-69
2021/07/10 06:46:20;;;;;;;28.30;23.20;;;25.60;99.90;;;;;;5036789;28;20033;-69
2021/07/10 06:48:46;;;;;;;26.77;22.50;;;25.50;99.90;;;;;;5035781;28;20032;-69
2021/07/10 06:51:11;;;;;;;28.95;24.10;;;26.00;99.90;;;;;;5054230;28;20022;-69
2021/07/10 06:53:38;;;;;;;27.42;23.25;;;26.10;99.90;;;;;;5054123;28;20087;-70
2021/07/10 06:56:04;;;;;;;27.60;23.15;;;26.30;99.90;;;;;;5054666;28;20124;-69
2021/07/10 06:58:30;;;;;;;29.02;23.67;;;26.20;99.90;;;;;;5036579;28;20035;-69
2021/07/10 07:00:56;;;;;;;29.10;25.10;;;25.90;99.90;;;;;;5054270;28;20108;-69
2021/07/10 07:03:21;;;;;;;29.25;23.50;;;25.70;99.90;;;;;;5054448;28;20074;-69
2021/07/10 07:05:47;;;;;;;33.08;25.08;;;25.80;99.90;;;;;;5054184;28;20025;-69
2021/07/10 07:08:12;;;;;;;27.83;23.95;;;26.10;99.90;;;;;;5036023;28;20469;-69
2021/07/10 07:10:38;;;;;;;29.08;24.60;;;26.40;99.90;;;;;;5054562;28;20083;-69
2021/07/10 07:13:04;;;;;;;33.10;26.80;;;26.10;99.90;;;;;;5019426;28;20051;-70
2021/07/10 07:15:29;;;;;;;34.05;27.40;;;26.20;99.90;;;;;;5054282;28;20035;-69
2021/07/10 07:17:55;;;;;;;33.95;29.17;;;26.30;99.90;;;;;;5054325;28;20040;-70
2021/07/10 07:20:20;;;;;;;35.53;27.77;;;26.30;99.90;;;;;;5054222;28;20029;-69
2021/07/10 07:22:48;;;;;;;32.33;27.17;;;25.90;99.90;;;;;;5036615;28;20036;-69
2021/07/10 07:25:18;;;;;;;34.88;28.92;;;25.80;99.90;;;;;;5054050;28;20050;-69
2021/07/10 07:27:44;;;;;;;34.20;28.13;;;25.60;99.90;;;;;;5053484;28;20429;-69
2021/07/10 07:30:10;;;;;;;37.53;29.27;;;25.70;99.90;;;;;;5036152;28;20021;-69
2021/07/10 07:32:37;;;;;;;39.45;31.40;;;25.70;99.90;;;;;;5053781;28;20035;-69
2021/07/10 07:35:04;;;;;;;37.00;30.17;;;24.80;99.90;;;;;;5053766;28;20017;-69
2021/07/10 07:37:30;;;;;;;38.80;32.03;;;24.90;99.90;;;;;;5035689;28;20021;-69
2021/07/10 07:39:56;;;;;;;40.67;33.40;;;25.10;99.90;;;;;;5053999;28;20047;-69
2021/07/10 07:42:21;;;;;;;39.60;32.10;;;25.00;99.90;;;;;;5053940;28;20028;-69
2021/07/10 07:44:47;;;;;;;41.95;31.98;;;25.00;99.90;;;;;;5053157;28;20104;-69
2021/07/10 07:47:15;;;;;;;44.97;32.65;;;24.50;99.90;;;;;;5053410;28;20166;-69
2021/07/10 07:49:42;;;;;;;42.00;29.63;;;24.00;99.90;;;;;;5053967;28;20393;-69
2021/07/10 07:52:08;;;;;;;43.28;32.30;;;24.10;99.90;;;;;;5053922;28;20344;-69
2021/07/10 07:54:34;;;;;;;37.03;29.10;;;24.10;99.90;;;;;;5019436;28;20074;-69
2021/07/10 07:57:00;;;;;;;37.55;29.48;;;24.40;99.90;;;;;;5053580;28;20029;-69
2021/07/10 07:59:26;;;;;;;37.53;24.83;;;24.90;99.90;;;;;;5035546;28;20434;-70
2021/07/10 08:01:52;;;;;;;26.73;20.17;;;25.50;99.90;;;;;;5023054;28;20028;-69
2021/07/10 08:04:17;;;;;;;29.20;21.45;;;25.30;99.90;;;;;;5057554;28;20021;-69
2021/07/10 08:06:43;;;;;;;29.00;22.10;;;24.90;99.90;;;;;;5057834;28;20025;-69
2021/07/10 08:09:08;;;;;;;30.15;21.35;;;25.10;99.90;;;;;;5057221;28;20029;-69
2021/07/10 08:11:34;;;;;;;25.55;20.60;;;25.20;99.90;;;;;;5022984;28;20386;-69
2021/07/10 08:14:00;;;;;;;23.80;17.80;;;25.80;99.90;;;;;;5039263;28;20470;-69
2021/07/10 08:16:26;;;;;;;24.38;18.52;;;25.20;99.90;;;;;;5057621;28;20035;-69
2021/07/10 08:18:52;;;;;;;22.10;15.20;;;24.50;99.90;;;;;;5023220;28;20030;-69
2021/07/10 08:21:18;;;;;;;28.85;20.33;;;24.90;99.90;;;;;;5039209;28;20504;-69
2021/07/10 08:23:44;;;;;;;28.95;19.55;;;24.40;99.90;;;;;;5057464;28;20028;-68
2021/07/10 08:26:10;;;;;;;26.30;20.38;;;24.10;99.90;;;;;;5056895;28;20381;-69
2021/07/10 08:28:36;;;;;;;25.52;19.98;;;24.40;99.90;;;;;;5057151;28;20071;-69
2021/07/10 08:31:02;;;;;;;20.50;17.25;;;24.80;99.90;;;;;;5056855;28;20116;-69
2021/07/10 08:33:28;;;;;;;20.65;15.18;;;24.90;99.90;;;;;;5057353;28;20397;-69
2021/07/10 08:35:54;;;;;;;20.02;15.32;;;25.10;99.90;;;;;;5057278;28;20017;-69
2021/07/10 08:38:20;;;;;;;16.75;12.73;;;24.60;99.90;;;;;;5038797;28;20044;-69
2021/07/10 08:40:45;;;;;;;16.13;10.63;;;24.60;99.90;;;;;;5057229;28;20037;-69
2021/07/10 08:43:12;;;;;;;12.88;10.77;;;24.60;99.90;;;;;;5056905;28;20453;-69
2021/07/10 08:45:38;;;;;;;16.40;12.20;;;24.90;99.90;;;;;;5057074;28;20029;-69
2021/07/10 08:48:05;;;;;;;17.77;14.27;;;25.30;99.90;;;;;;5038583;28;20022;-69
2021/07/10 08:50:32;;;;;;;15.90;12.52;;;24.70;99.90;;;;;;5022319;28;20068;-69
2021/07/10 08:52:58;;;;;;;14.23;10.85;;;24.70;99.90;;;;;;5056986;28;20032;-69
2021/07/10 08:55:24;;;;;;;15.70;11.10;;;25.10;99.90;;;;;;5056691;28;20036;-69
2021/07/10 08:57:52;;;;;;;15.90;11.95;;;24.80;99.90;;;;;;5056905;28;20024;-69
2021/07/10 09:00:22;;;;;;;15.90;12.75;;;24.80;99.90;;;;;;5038750;28;20474;-68
2021/07/10 09:02:50;;;;;;;14.32;11.45;;;24.60;99.90;;;;;;5038678;28;20471;-69
2021/07/10 09:05:17;;;;;;;13.98;10.95;;;24.60;99.90;;;;;;5038812;28;20025;-69
2021/07/10 09:08:23;;;;;;;13.43;8.93;;;24.70;99.90;;;;;;5038281;28;20051;-69
2021/07/10 09:11:03;;;;;;;12.82;9.80;;;24.60;99.90;;;;;;5056076;28;20386;-69
2021/07/10 09:13:48;;;;;;;13.07;10.35;;;24.70;99.90;;;;;;5055622;28;20080;-69
2021/07/10 09:16:18;;;;;;;11.65;9.25;;;24.70;99.90;;;;;;5056005;28;20029;-68
2021/07/10 09:18:48;;;;;;;12.80;10.77;;;25.30;99.90;;;;;;5056209;28;20017;-69
2021/07/10 09:21:43;;;;;;;15.50;12.18;;;26.20;99.90;;;;;;5021996;28;20021;-69
2021/07/10 09:24:15;;;;;;;12.98;11.35;;;25.90;99.90;;;;;;5056021;28;20036;-69
2021/07/10 09:26:43;;;;;;;13.90;12.15;;;25.90;99.90;;;;;;5038366;28;20039;-69
2021/07/10 09:29:13;;;;;;;13.95;11.65;;;26.40;99.90;;;;;;5055962;28;20454;-69
2021/07/10 09:31:43;;;;;;;17.90;12.70;;;26.90;99.90;;;;;;5056251;28;20059;-69
2021/07/10 09:34:12;;;;;;;16.00;13.02;;;26.20;99.90;;;;;;5056190;28;20052;-69
2021/07/10 09:36:50;;;;;;;13.63;12.23;;;26.30;99.90;;;;;;5038105;28;20049;-69
2021/07/10 09:39:17;;;;;;;9.25;7.47;;;26.60;99.90;;;;;;5037435;28;20111;-69
2021/07/10 09:41:43;;;;;;;9.98;7.20;;;26.80;99.90;;;;;;5055734;28;20032;-68
2021/07/10 09:44:12;;;;;;;9.00;8.10;;;26.80;99.90;;;;;;5057871;28;20048;-69
2021/07/10 09:46:38;;;;;;;10.18;8.10;;;26.40;99.90;;;;;;5074884;28;20107;-69
2021/07/10 09:52:19;;;;;;;8.48;7.32;;;27.00;99.90;;;;;;5112206;27;20290;-67
2021/07/10 09:54:48;;;;;;;9.60;7.20;;;26.70;99.90;;;;;;5110112;28;20058;-68
2021/07/10 09:57:17;;;;;;;8.70;6.40;;;26.40;99.90;;;;;;5111887;28;20036;-68
2021/07/10 09:59:48;;;;;;;10.82;6.63;;;25.60;99.90;;;;;;5111786;28;20065;-68
2021/07/10 10:02:18;;;;;;;9.38;7.50;;;25.30;99.90;;;;;;5109970;28;20024;-68
2021/07/10 10:04:44;;;;;;;12.35;9.02;;;26.10;99.90;;;;;;5111756;28;20024;-68
2021/07/10 10:07:12;;;;;;;11.98;7.88;;;26.20;99.90;;;;;;5092970;28;20020;-68
2021/07/10 10:09:38;;;;;;;9.48;7.30;;;25.90;99.90;;;;;;5110955;28;20020;-67
2021/07/10 10:12:08;;;;;;;8.98;7.55;;;25.90;99.90;;;;;;5110983;28;20069;-68
2021/07/10 10:14:39;;;;;;;10.43;7.97;;;25.90;99.90;;;;;;5111281;28;20028;-67
2021/07/10 10:17:04;;;;;;;10.35;8.27;;;25.40;99.90;;;;;;5111441;28;20103;-69
2021/07/10 10:19:32;;;;;;;12.40;8.88;;;25.00;99.90;;;;;;5109663;28;20425;-69
2021/07/10 10:22:01;;;;;;;11.63;8.50;;;25.00;99.90;;;;;;5111382;28;20450;-69
2021/07/10 10:24:28;;;;;;;11.18;7.82;;;24.70;99.90;;;;;;5110841;28;20043;-69
2021/07/10 10:26:57;;;;;;;11.32;8.10;;;24.90;99.90;;;;;;5092773;28;20031;-69
2021/07/10 10:29:24;;;;;;;8.23;7.22;;;24.60;99.90;;;;;;5110214;28;20027;-68
2021/07/10 10:31:50;;;;;;;10.55;8.60;;;24.40;99.90;;;;;;5110550;28;20381;-69
2021/07/10 10:34:16;;;;;;;9.02;7.85;;;24.50;99.90;;;;;;5109941;28;20020;-69
2021/07/10 10:36:45;;;;;;;10.70;8.20;;;24.30;99.90;;;;;;5109330;28;20046;-69
2021/07/10 10:39:14;;;;;;;9.75;7.70;;;23.90;99.90;;;;;;5111072;28;20041;-68
2021/07/10 10:41:43;;;;;;;13.32;8.27;;;24.00;99.90;;;;;;5109263;28;20023;-69
2021/07/10 10:44:10;;;;;;;10.55;8.15;;;23.70;99.90;;;;;;5110960;28;20342;-68
2021/07/10 10:46:53;;;;;;;9.00;7.55;;;23.80;99.90;;;;;;5110913;28;20028;-69
2021/07/10 10:49:42;;;;;;;10.30;7.53;;;23.90;99.90;;;;;;5109575;28;20024;-69
2021/07/10 10:52:32;;;;;;;9.18;7.95;;;24.10;99.90;;;;;;5110499;28;20306;-69
2021/07/10 10:55:19;;;;;;;10.75;7.65;;;24.10;99.90;;;;;;5108872;28;20024;-69
2021/07/10 10:57:52;;;;;;;11.57;8.85;;;24.10;99.90;;;;;;5110668;28;20115;-69
2021/07/10 11:00:34;;;;;;;;;;;24.20;99.90;;;;;;5109669;28;20035;-69
2021/07/10 11:03:09;;;;;;;7.25;6.55;;;24.30;99.90;;;;;;5098923;28;19908;-69
2021/07/10 11:05:38;;;;;;;12.73;7.90;;;24.50;99.90;;;;;;5096633;28;20059;-69
2021/07/10 11:08:23;;;;;;;9.20;7.65;;;24.30;99.90;;;;;;5096699;28;20024;-69
2021/07/10 11:11:01;;;;;;;9.65;8.20;;;24.70;99.90;;;;;;5096929;28;20111;-69
2021/07/10 11:13:48;;;;;;;9.65;7.75;;;24.70;99.90;;;;;;5096733;28;20026;-69
2021/07/10 11:16:16;;;;;;;8.38;7.30;;;24.90;99.90;;;;;;5096167;28;20024;-69
2021/07/10 11:19:06;;;;;;;11.48;7.38;;;24.90;99.90;;;;;;5096822;28;20085;-69
2021/07/10 11:21:37;;;;;;;9.85;7.25;;;24.60;99.90;;;;;;5096596;28;20020;-69
2021/07/10 11:29:38;;;;;;;8.88;7.40;;;24.60;99.90;;;;;;5153387;27;20280;-68
2021/07/10 11:32:25;;;;;;;11.45;7.53;;;24.90;99.90;;;;;;5114344;28;20059;-68
2021/07/10 11:34:56;;;;;;;9.63;6.55;;;25.10;99.90;;;;;;5114419;28;20514;-67
2021/07/10 11:37:25;;;;;;;9.80;7.47;;;25.00;99.90;;;;;;5096664;28;20391;-68
2021/07/10 11:42:41;;;;;;;9.05;7.57;;;24.70;99.90;;;;;;5071631;28;20411;-67
2021/07/10 11:47:46;;;;;;;9.88;6.68;;;24.70;99.90;;;;;;5091799;28;20567;-67
2021/07/10 11:50:17;;;;;;;7.70;6.18;;;25.00;99.90;;;;;;5072906;28;20448;-67
2021/07/10 11:53:04;;;;;;;7.15;5.68;;;24.70;99.90;;;;;;5090362;28;20450;-68
2021/07/10 11:55:34;;;;;;;7.38;6.28;;;24.80;99.90;;;;;;5091185;28;20103;-69
2021/07/10 11:58:07;;;;;;;10.43;6.57;;;24.70;99.90;;;;;;5091423;28;20024;-68
2021/07/10 12:00:33;;;;;;;7.07;6.38;;;24.80;99.90;;;;;;5091346;28;20065;-69
2021/07/10 12:02:59;;;;;;;9.93;6.50;;;24.80;99.90;;;;;;5091335;28;20477;-68
2021/07/10 12:05:25;;;;;;;8.77;6.57;;;24.60;99.90;;;;;;5089926;28;20386;-70
2021/07/10 12:07:54;;;;;;;9.02;6.25;;;24.50;99.90;;;;;;5090663;28;20427;-69
2021/07/10 12:10:30;;;;;;;9.73;6.35;;;24.80;99.90;;;;;;5090585;28;20020;-69
2021/07/10 12:13:00;;;;;;;7.82;6.47;;;24.60;99.90;;;;;;5090987;28;20024;-69
2021/07/10 12:15:31;;;;;;;8.82;6.30;;;24.70;99.90;;;;;;5091031;28;20056;-69
2021/07/10 12:17:59;;;;;;;8.02;6.30;;;25.30;99.90;;;;;;5091039;28;20120;-70
2021/07/10 12:20:28;;;;;;;7.80;6.88;;;25.30;99.90;;;;;;5090970;28;20351;-70
2021/07/10 12:22:58;;;;;;;8.18;6.60;;;25.30;99.90;;;;;;5090924;28;20021;-69
2021/07/10 12:25:27;;;;;;;10.55;6.70;;;25.10;99.90;;;;;;5090558;28;20025;-69
2021/07/10 12:27:54;;;;;;;11.48;7.10;;;25.00;99.90;;;;;;5089307;28;20035;-69
2021/07/10 12:30:36;;;;;;;8.35;7.43;;;25.00;99.90;;;;;;5089068;28;20033;-69
2021/07/10 12:33:02;;;;;;;8.02;7.22;;;25.30;99.90;;;;;;5088950;28;20534;-69
2021/07/10 12:35:27;;;;;;;8.88;6.88;;;26.10;99.90;;;;;;5071992;28;20119;-71
2021/07/10 12:38:10;;;;;;;11.57;7.18;;;26.60;99.90;;;;;;5090310;28;20056;-69
2021/07/10 12:40:36;;;;;;;8.77;7.80;;;26.60;99.90;;;;;;5090346;28;20386;-70
2021/07/10 12:43:01;;;;;;;9.82;7.10;;;26.40;99.90;;;;;;5089125;28;20021;-70
2021/07/10 12:45:27;;;;;;;9.60;7.55;;;26.10;99.90;;;;;;5088736;28;20020;-70
2021/07/10 12:48:00;;;;;;;8.50;7.00;;;25.80;99.90;;;;;;5090478;28;20440;-70